createdAt,value
2023-04-05T00:02:14.113Z,13.63
2023-04-05T00:04:50.113Z,13.27
2023-04-05T00:07:17.382Z,13.73
2023-04-05T00:09:44.008Z,12.67
2023-04-05T00:12:10.862Z,14.37
2023-04-05T00:14:37.485Z,13.87
2023-04-05T00:17:04.260Z,13.10
2023-04-05T00:19:33.705Z,13.80
2023-04-05T00:22:00.702Z,14.23
2023-04-05T00:24:29.252Z,14.30
2023-04-05T00:26:56.572Z,14.40
2023-04-05T00:29:23.341Z,14.30
2023-04-05T00:31:50.299Z,13.60
2023-04-05T00:34:16.934Z,14.27
2023-04-05T00:36:43.432Z,13.60
2023-04-05T00:39:10.197Z,13.47
2023-04-05T00:41:36.721Z,14.13
2023-04-05T00:44:03.874Z,14.03
2023-04-05T00:46:33.504Z,14.03
2023-04-05T00:49:00.120Z,13.57
2023-04-05T00:51:26.774Z,14.13
2023-04-05T00:53:53.797Z,14.27
2023-04-05T00:56:21.629Z,14.10
2023-04-05T00:58:51.669Z,14.20
2023-04-05T01:01:23.644Z,14.23
2023-04-05T01:03:55.947Z,14.73
2023-04-05T01:06:53.126Z,15.33
2023-04-05T01:09:45.642Z,15.53
2023-04-05T01:12:20.771Z,15.60
2023-04-05T01:14:52.561Z,16.40
2023-04-05T01:17:23.760Z,15.33
2023-04-05T01:19:58.664Z,15.30
2023-04-05T01:22:53.174Z,14.90
2023-04-05T01:25:59.940Z,14.63
2023-04-05T01:28:38.650Z,16.17
2023-04-05T01:31:39.080Z,15.87
2023-04-05T01:34:21.606Z,13.70
2023-04-05T01:37:01.447Z,14.10
2023-04-05T01:39:29.747Z,14.37
2023-04-05T01:42:03.318Z,14.57
2023-04-05T01:44:30.010Z,14.23
2023-04-05T01:46:56.830Z,14.20
2023-04-05T01:49:24.558Z,14.23
2023-04-05T01:51:51.187Z,14.47
2023-04-05T01:54:17.747Z,15.10
2023-04-05T01:56:44.511Z,14.47
2023-04-05T01:59:11.119Z,14.47
2023-04-05T02:01:37.692Z,14.17
2023-04-05T02:04:04.260Z,15.13
2023-04-05T02:06:32.090Z,14.57
2023-04-05T02:08:58.598Z,15.83
2023-04-05T02:11:25.272Z,15.83
2023-04-05T02:13:51.818Z,15.40
2023-04-05T02:16:18.651Z,15.80
2023-04-05T02:18:50.595Z,16.43
2023-04-05T02:21:17.138Z,16.90
2023-04-05T02:23:44.196Z,16.23
2023-04-05T02:26:10.697Z,17.07
2023-04-05T02:28:37.241Z,18.77
2023-04-05T02:31:09.982Z,18.13
2023-04-05T02:33:36.979Z,18.50
2023-04-05T02:36:09.467Z,18.70
2023-04-05T02:38:36.161Z,17.80
2023-04-05T02:41:03.146Z,17.23
2023-04-05T02:43:29.660Z,16.67
2023-04-05T02:45:56.290Z,17.63
2023-04-05T02:48:22.821Z,19.03
2023-04-05T02:50:50.871Z,17.57
2023-04-05T02:53:18.561Z,16.57
2023-04-05T02:55:55.680Z,17.17
2023-04-05T02:58:23.497Z,16.53
2023-04-05T03:00:51.738Z,16.70
2023-04-05T03:03:19.496Z,16.70
2023-04-05T03:05:48.444Z,17.20
2023-04-05T03:08:19.398Z,18.20
2023-04-05T03:10:46.619Z,17.53
2023-04-05T03:13:14.314Z,17.97
2023-04-05T03:15:42.207Z,17.00
2023-04-05T03:18:09.490Z,17.37
2023-04-05T03:20:40.403Z,17.57
2023-04-05T03:23:08.768Z,17.47
2023-04-05T03:25:37.009Z,16.83
2023-04-05T03:28:05.556Z,17.70
2023-04-05T03:30:33.112Z,17.20
2023-04-05T03:33:03.042Z,17.07
2023-04-05T03:35:30.106Z,17.37
2023-04-05T03:37:57.170Z,18.67
2023-04-05T03:40:24.426Z,18.40
2023-04-05T03:42:51.124Z,17.67
2023-04-05T03:45:23.264Z,18.03
2023-04-05T03:47:51.210Z,17.97
2023-04-05T03:50:17.897Z,17.70
2023-04-05T03:52:44.740Z,17.60
2023-04-05T03:55:11.296Z,17.67
2023-04-05T03:57:38.803Z,17.93
2023-04-05T04:00:14.011Z,18.33
2023-04-05T04:02:45.264Z,18.70
2023-04-05T04:05:12.459Z,18.27
2023-04-05T04:07:39.155Z,18.17
2023-04-05T04:10:06.475Z,17.50
2023-04-05T04:12:32.990Z,17.03
2023-04-05T04:14:59.642Z,18.00
2023-04-05T04:17:31.316Z,18.87
2023-04-05T04:19:58.702Z,18.87
2023-04-05T04:22:32.984Z,19.33
2023-04-05T04:25:02.625Z,18.80
2023-04-05T04:27:30.321Z,19.90
2023-04-05T04:30:01.802Z,18.00
2023-04-05T04:32:49.161Z,19.17
2023-04-05T04:35:20.793Z,18.57
2023-04-05T04:37:52.700Z,19.03
2023-04-05T04:40:19.261Z,18.67
2023-04-05T04:42:48.854Z,18.67
2023-04-05T04:45:19.499Z,17.70
2023-04-05T04:47:47.962Z,18.53
2023-04-05T04:50:15.899Z,19.27
2023-04-05T04:52:42.774Z,18.90
2023-04-05T04:55:10.061Z,18.90
2023-04-05T04:57:36.643Z,19.33
2023-04-05T05:00:07.865Z,19.47
2023-04-05T05:02:34.646Z,20.60
2023-04-05T05:05:01.226Z,17.50
2023-04-05T05:07:28.571Z,18.90
2023-04-05T05:09:55.291Z,19.30
2023-04-05T05:12:22.293Z,18.70
2023-04-05T05:14:48.795Z,19.23
2023-04-05T05:17:15.358Z,18.53
2023-04-05T05:19:41.923Z,19.47
2023-04-05T05:22:08.553Z,19.97
2023-04-05T05:24:35.070Z,20.00
2023-04-05T05:27:01.643Z,20.10
2023-04-05T05:29:28.346Z,19.23
2023-04-05T05:31:55.247Z,20.57
2023-04-05T05:34:22.187Z,21.37
2023-04-05T05:36:48.927Z,21.43
2023-04-05T05:39:15.876Z,20.97
2023-04-05T05:41:42.452Z,19.60
2023-04-05T05:44:08.970Z,19.70
2023-04-05T05:46:35.692Z,19.40
2023-04-05T05:49:02.290Z,20.70
2023-04-05T05:51:28.821Z,18.60
2023-04-05T05:53:55.666Z,19.37
2023-04-05T05:56:22.490Z,20.67
2023-04-05T05:58:49.139Z,20.47
2023-04-05T06:01:16.153Z,21.50
2023-04-05T06:03:42.852Z,21.63
2023-04-05T06:06:11.044Z,21.00
2023-04-05T06:08:38.056Z,20.03
2023-04-05T06:11:04.811Z,20.77
2023-04-05T06:13:31.373Z,20.60
2023-04-05T06:16:00.953Z,20.47
2023-04-05T06:18:27.498Z,20.60
2023-04-05T06:20:55.697Z,20.33
2023-04-05T06:23:22.347Z,19.00
2023-04-05T06:25:49.142Z,19.53
2023-04-05T06:28:15.717Z,20.37
2023-04-05T06:30:42.477Z,20.87
2023-04-05T06:33:09.166Z,21.93
2023-04-05T06:35:35.781Z,22.40
2023-04-05T06:38:02.367Z,22.07
2023-04-05T06:40:29.275Z,23.10
2023-04-05T06:42:56.115Z,21.50
2023-04-05T06:45:23.041Z,20.83
2023-04-05T06:47:49.680Z,21.60
2023-04-05T06:50:16.267Z,22.37
2023-04-05T06:52:42.787Z,22.60
2023-04-05T06:55:09.572Z,22.10
2023-04-05T06:57:36.089Z,21.47
2023-04-05T07:00:08.524Z,20.70
2023-04-05T07:02:36.284Z,22.17
2023-04-05T07:05:05.610Z,20.17
2023-04-05T07:07:39.682Z,20.67
2023-04-05T07:10:06.751Z,20.50
2023-04-05T07:12:33.292Z,20.73
2023-04-05T07:15:00.272Z,17.80
2023-04-05T07:17:27.054Z,17.60
2023-04-05T07:19:53.638Z,16.60
2023-04-05T07:22:20.422Z,14.20
2023-04-05T07:24:46.996Z,13.60
2023-04-05T07:27:13.540Z,12.77
2023-04-05T07:29:44.524Z,11.40
2023-04-05T07:32:11.950Z,11.20
2023-04-05T07:34:38.547Z,10.30
2023-04-05T07:37:06.341Z,11.10
2023-04-05T07:39:33.274Z,10.93
2023-04-05T07:41:59.817Z,9.87
2023-04-05T07:44:26.549Z,10.37
2023-04-05T07:46:53.165Z,10.17
2023-04-05T07:49:25.288Z,9.70
2023-04-05T07:51:55.576Z,9.70
2023-04-05T07:54:22.158Z,9.83
2023-04-05T07:56:51.662Z,9.93
2023-04-05T07:59:18.309Z,9.80
2023-04-05T08:01:44.872Z,9.53
2023-04-05T08:04:11.613Z,9.20
2023-04-05T08:06:38.453Z,9.17
2023-04-05T08:09:05.727Z,8.93
2023-04-05T08:11:33.056Z,9.17
2023-04-05T08:13:59.623Z,9.90
2023-04-05T08:16:26.268Z,9.93
2023-04-05T08:18:52.761Z,10.13
2023-04-05T08:21:19.286Z,9.37
2023-04-05T08:23:46.282Z,9.00
2023-04-05T08:26:12.854Z,9.37
2023-04-05T08:28:39.361Z,9.27
2023-04-05T08:31:06.004Z,10.00
2023-04-05T08:33:32.554Z,9.10
2023-04-05T08:36:07.339Z,10.47
2023-04-05T08:38:34.385Z,9.30
2023-04-05T08:41:22.730Z,9.27
2023-04-05T08:44:02.188Z,9.90
2023-04-05T08:46:33.661Z,9.93
2023-04-05T08:49:04.015Z,9.47
2023-04-05T08:51:31.029Z,9.17
2023-04-05T08:53:59.738Z,9.70
2023-04-05T08:56:31.291Z,8.93
2023-04-05T08:59:01.612Z,9.03
2023-04-05T09:01:30.885Z,9.10
2023-04-05T09:04:01.393Z,9.63
2023-04-05T09:06:28.652Z,9.17
2023-04-05T09:08:58.248Z,9.37
2023-04-05T09:11:25.584Z,9.17
2023-04-05T09:13:52.438Z,9.03
2023-04-05T09:16:20.124Z,9.23
2023-04-05T09:18:46.848Z,9.87
2023-04-05T09:21:13.512Z,9.07
2023-04-05T09:23:52.616Z,9.60
2023-04-05T09:26:21.464Z,8.87
2023-04-05T09:28:48.187Z,9.67
2023-04-05T09:31:35.503Z,9.53
2023-04-05T09:34:05.813Z,8.63
2023-04-05T09:36:36.234Z,9.47
2023-04-05T09:39:09.634Z,8.90
2023-04-05T09:41:36.836Z,9.67
2023-04-05T09:44:03.829Z,9.60
2023-04-05T09:46:37.072Z,8.50
2023-04-05T09:49:04.113Z,9.83
2023-04-05T09:51:35.583Z,9.10
2023-04-05T09:54:10.567Z,9.40
2023-04-05T09:56:40.322Z,9.15
2023-04-05T09:59:13.181Z,8.75
2023-04-05T10:01:43.940Z,8.80
2023-04-05T10:04:10.999Z,8.95
2023-04-05T10:06:42.569Z,8.40
2023-04-05T10:09:11.278Z,8.60
2023-04-05T10:11:38.883Z,8.77
2023-04-05T10:14:08.351Z,8.70
2023-04-05T10:16:58.235Z,7.95
2023-04-05T10:19:32.871Z,8.35
2023-04-05T10:22:02.371Z,8.57
2023-04-05T10:24:40.442Z,8.15
2023-04-05T10:27:21.378Z,8.10
2023-04-05T10:30:13.804Z,8.70
2023-04-05T10:33:17.849Z,8.38
2023-04-05T10:35:55.298Z,8.57
2023-04-05T10:38:27.191Z,7.93
2023-04-05T10:40:57.223Z,7.88
2023-04-05T10:43:26.904Z,8.10
2023-04-05T10:45:55.644Z,7.72
2023-04-05T10:48:44.448Z,7.75
2023-04-05T10:51:13.126Z,8.43
2023-04-05T10:53:41.236Z,8.15
2023-04-05T10:56:08.824Z,7.25
2023-04-05T10:58:36.857Z,7.40
2023-04-05T11:01:04.802Z,8.27
2023-04-05T11:03:48.739Z,8.35
2023-04-05T11:06:33.291Z,7.80
2023-04-05T11:09:21.106Z,7.50
2023-04-05T11:11:49.548Z,7.65
2023-04-05T11:14:27.624Z,8.07
2023-04-05T11:16:59.595Z,8.18
2023-04-05T11:19:54.215Z,8.30
2023-04-05T11:22:28.984Z,8.68
2023-04-05T11:24:58.297Z,8.30
2023-04-05T11:27:40.849Z,8.13
2023-04-05T11:30:08.289Z,8.35
2023-04-05T11:32:43.657Z,8.45
2023-04-05T11:35:15.309Z,8.57
2023-04-05T11:38:00.198Z,8.45
2023-04-05T11:40:40.908Z,8.68
2023-04-05T11:43:12.165Z,9.15
2023-04-05T11:45:40.003Z,7.88
2023-04-05T11:48:11.836Z,8.25
2023-04-05T11:50:39.664Z,8.07
2023-04-05T11:53:17.116Z,8.70
2023-04-05T11:55:50.483Z,9.30
2023-04-05T11:58:21.387Z,8.68
2023-04-05T12:01:01.682Z,8.57
2023-04-05T12:03:29.713Z,8.70
2023-04-05T12:05:58.047Z,8.15
2023-04-05T12:08:41.842Z,9.15
2023-04-05T12:11:11.452Z,8.68
2023-04-05T12:13:39.613Z,8.00
2023-04-05T12:16:08.103Z,8.15
2023-04-05T12:18:38.340Z,8.32
2023-04-05T12:21:09.321Z,8.00
2023-04-05T12:23:39.014Z,8.90
2023-04-05T12:26:07.977Z,8.48
2023-04-05T12:28:57.761Z,9.02
2023-04-05T12:31:44.869Z,9.07
2023-04-05T12:34:13.963Z,9.10
2023-04-05T12:36:45.981Z,8.50
2023-04-05T12:39:12.592Z,7.68
2023-04-05T12:41:39.430Z,8.18
2023-04-05T12:44:16.102Z,8.18
2023-04-05T12:46:46.705Z,8.38
2023-04-05T12:49:14.648Z,8.25
2023-04-05T12:51:46.060Z,9.07
2023-04-05T12:54:21.516Z,9.00
2023-04-05T12:56:50.669Z,8.63
2023-04-05T12:59:17.227Z,9.27
2023-04-05T13:01:43.798Z,9.30
2023-04-05T13:06:40.321Z,8.85
2023-04-05T13:09:06.834Z,9.32
2023-04-05T13:11:33.403Z,9.00
2023-04-05T13:14:00.173Z,8.90
2023-04-05T13:16:27.214Z,8.55
2023-04-05T13:18:53.808Z,8.27
2023-04-05T13:21:20.396Z,8.80
2023-04-05T13:23:46.893Z,8.35
2023-04-05T13:26:13.399Z,8.63
2023-04-05T13:28:39.997Z,8.88
2023-04-05T13:31:08.156Z,9.07
2023-04-05T13:33:34.873Z,9.18
2023-04-05T13:36:01.665Z,9.02
2023-04-05T13:38:28.345Z,8.95
2023-04-05T13:40:55.290Z,9.48
2023-04-05T13:43:21.814Z,8.73
2023-04-05T13:45:48.461Z,9.82
2023-04-05T13:48:15.009Z,8.90
2023-04-05T13:50:41.740Z,9.48
2023-04-05T13:53:08.478Z,9.35
2023-04-05T13:55:35.028Z,13.13
2023-04-05T13:58:01.559Z,9.35
2023-04-05T14:00:28.052Z,9.95
2023-04-05T14:02:54.753Z,9.20
2023-04-05T14:05:21.407Z,9.80
2023-04-05T14:07:49.811Z,9.63
2023-04-05T14:10:17.576Z,9.82
2023-04-05T14:12:44.485Z,9.88
2023-04-05T14:15:11.860Z,9.18
2023-04-05T14:17:38.496Z,9.30
2023-04-05T14:20:06.466Z,9.23
2023-04-05T14:22:33.093Z,9.77
2023-04-05T14:24:59.722Z,9.45
2023-04-05T14:27:28.258Z,9.30
2023-04-05T14:29:58.339Z,9.80
2023-04-05T14:32:25.750Z,9.50
2023-04-05T14:34:52.558Z,9.98
2023-04-05T14:37:19.211Z,10.00
2023-04-05T14:39:46.824Z,9.13
2023-04-05T14:42:13.420Z,9.35
2023-04-05T14:44:40.051Z,9.60
2023-04-05T14:47:06.936Z,9.35
2023-04-05T14:49:33.546Z,9.27
2023-04-05T14:52:00.280Z,9.55
2023-04-05T14:54:26.827Z,9.32
2023-04-05T14:56:53.439Z,9.27
2023-04-05T14:59:20.186Z,9.90
2023-04-05T15:01:47.309Z,9.02
2023-04-05T15:04:14.079Z,9.30
2023-04-05T15:06:40.748Z,9.13
2023-04-05T15:09:07.368Z,9.05
2023-04-05T15:11:38.602Z,10.00
2023-04-05T15:14:05.615Z,8.93
2023-04-05T15:16:32.320Z,9.15
2023-04-05T15:18:59.074Z,9.30
2023-04-05T15:21:25.887Z,8.88
2023-04-05T15:23:52.473Z,8.77
2023-04-05T15:26:19.131Z,8.77
2023-04-05T15:28:45.707Z,9.10
2023-04-05T15:31:12.345Z,9.40
2023-04-05T15:33:38.917Z,8.98
2023-04-05T15:36:07.073Z,9.57
2023-04-05T15:38:33.756Z,9.85
2023-04-05T15:41:00.345Z,8.93
2023-04-05T15:43:27.002Z,8.82
2023-04-05T15:45:53.676Z,8.55
2023-04-05T15:48:20.408Z,9.40
2023-04-05T15:50:47.178Z,9.20
2023-04-05T15:53:13.785Z,8.85
2023-04-05T15:55:40.363Z,10.00
2023-04-05T15:58:07.366Z,9.23
2023-04-05T16:00:34.064Z,9.55
2023-04-05T16:03:01.207Z,9.15
2023-04-05T16:05:27.955Z,8.85
2023-04-05T16:07:55.430Z,9.18
2023-04-05T16:10:22.237Z,8.65
2023-04-05T16:12:48.874Z,9.77
2023-04-05T16:15:15.476Z,9.52
2023-04-05T16:17:42.284Z,8.65
2023-04-05T16:20:09.223Z,8.75
2023-04-05T16:22:35.826Z,9.50
2023-04-05T16:25:02.397Z,8.60
2023-04-05T16:27:28.979Z,9.02
2023-04-05T16:29:55.610Z,8.73
2023-04-05T16:32:22.474Z,8.93
2023-04-05T16:34:49.045Z,9.18
2023-04-05T16:37:15.834Z,8.88
2023-04-05T16:39:42.415Z,8.60
2023-04-05T16:42:09.366Z,8.93
2023-04-05T16:44:35.958Z,8.82
2023-04-05T16:47:02.527Z,9.65
2023-04-05T16:49:29.121Z,8.30
2023-04-05T16:51:55.707Z,9.02
2023-04-05T16:54:22.269Z,8.73
2023-04-05T16:56:48.848Z,8.30
2023-04-05T16:59:15.601Z,8.00
2023-04-05T17:01:42.425Z,9.40
2023-04-05T17:04:09.131Z,8.43
2023-04-05T17:06:35.717Z,8.20
2023-04-05T17:09:03.327Z,7.80
2023-04-05T17:11:30.128Z,8.30
2023-04-05T17:13:59.141Z,8.40
2023-04-05T17:16:26.310Z,8.60
2023-04-05T17:18:52.997Z,8.43
2023-04-05T17:21:19.651Z,8.93
2023-04-05T17:23:46.221Z,8.93
2023-04-05T17:26:14.043Z,8.67
2023-04-05T17:28:40.692Z,8.40
2023-04-05T17:31:07.635Z,8.40
2023-04-05T17:33:34.274Z,9.40
2023-04-05T17:36:01.624Z,9.10
2023-04-05T17:38:28.325Z,9.67
2023-04-05T17:40:57.153Z,9.13
2023-04-05T17:43:24.148Z,8.73
2023-04-05T17:45:51.591Z,9.60
2023-04-05T17:48:18.803Z,9.13
2023-04-05T17:50:45.535Z,9.30
2023-04-05T17:53:13.791Z,9.87
2023-04-05T17:55:40.508Z,11.37
2023-04-05T17:58:07.104Z,10.67
2023-04-05T18:00:33.699Z,10.73
2023-04-05T18:03:07.175Z,9.67
2023-04-05T18:05:34.745Z,9.90
2023-04-05T18:08:01.540Z,10.13
2023-04-05T18:10:28.308Z,11.33
2023-04-05T18:12:55.043Z,11.50
2023-04-05T18:15:21.657Z,11.90
2023-04-05T18:17:48.287Z,10.87
2023-04-05T18:20:14.887Z,14.33
2023-04-05T18:22:41.582Z,11.67
2023-04-05T18:25:09.719Z,11.00
2023-04-05T18:27:36.695Z,11.03
2023-04-05T18:30:03.439Z,12.23
2023-04-05T18:32:30.250Z,12.67
2023-04-05T18:34:56.882Z,12.33
2023-04-05T18:37:23.816Z,20.97
2023-04-05T18:39:50.385Z,23.50
2023-04-05T18:42:17.228Z,17.87
2023-04-05T18:44:43.817Z,17.67
2023-04-05T18:47:10.425Z,17.77
2023-04-05T18:49:37.193Z,16.87
2023-04-05T18:52:03.843Z,16.03
2023-04-05T18:54:30.406Z,19.40
2023-04-05T18:56:57.176Z,31.00
2023-04-05T18:59:23.771Z,23.53
2023-04-05T19:01:51.562Z,16.17
2023-04-05T19:04:18.225Z,12.90
2023-04-05T19:06:45.012Z,13.20
2023-04-05T19:09:11.985Z,13.43
2023-04-05T19:11:38.609Z,12.50
2023-04-05T19:14:05.412Z,14.23
2023-04-05T19:16:32.094Z,13.37
2023-04-05T19:18:58.827Z,14.63
2023-04-05T19:21:25.866Z,14.17
2023-04-05T19:23:52.797Z,15.03
2023-04-05T19:26:21.856Z,15.10
2023-04-05T19:28:49.605Z,16.67
2023-04-05T19:31:16.297Z,17.17
2023-04-05T19:33:42.981Z,16.77
2023-04-05T19:36:09.565Z,16.47
2023-04-05T19:38:36.448Z,16.40
2023-04-05T19:41:03.313Z,17.83
2023-04-05T19:43:31.466Z,18.60
2023-04-05T19:46:00.330Z,18.87
2023-04-05T19:48:33.017Z,18.00
2023-04-05T19:51:02.190Z,19.30
2023-04-05T19:53:45.500Z,18.80
2023-04-05T19:56:23.506Z,20.07
2023-04-05T19:58:56.308Z,20.30
2023-04-05T20:01:37.752Z,21.43
2023-04-05T20:04:20.090Z,20.17
2023-04-05T20:06:53.139Z,20.43
2023-04-05T20:09:26.668Z,19.33
2023-04-05T20:12:01.776Z,19.07
2023-04-05T20:14:30.569Z,19.47
2023-04-05T20:16:58.330Z,19.60
2023-04-05T20:19:30.765Z,19.90
2023-04-05T20:21:58.608Z,19.27
2023-04-05T20:24:27.185Z,19.17
2023-04-05T20:26:56.601Z,19.70
2023-04-05T20:29:28.356Z,20.07
2023-04-05T20:31:55.472Z,19.90
2023-04-05T20:34:34.158Z,19.13
2023-04-05T20:37:02.602Z,18.93
2023-04-05T20:39:30.149Z,18.07
2023-04-05T20:41:57.094Z,19.10
2023-04-05T20:44:24.713Z,17.70
2023-04-05T20:46:53.764Z,18.80
2023-04-05T20:49:24.137Z,18.90
2023-04-05T20:51:51.149Z,18.83
2023-04-05T20:54:19.771Z,18.57
2023-04-05T20:56:46.919Z,19.03
2023-04-05T20:59:14.588Z,17.70
2023-04-05T21:01:42.716Z,18.73
2023-04-05T21:04:09.842Z,18.83
2023-04-05T21:06:37.459Z,19.17
2023-04-05T21:09:04.363Z,18.33
2023-04-05T21:11:30.976Z,18.20
2023-04-05T21:13:57.638Z,18.47
2023-04-05T21:16:24.457Z,19.70
2023-04-05T21:18:51.124Z,18.27
2023-04-05T21:21:17.769Z,18.30
2023-04-05T21:23:44.609Z,18.80
2023-04-05T21:26:11.172Z,19.80
2023-04-05T21:28:37.997Z,18.50
2023-04-05T21:31:04.611Z,18.47
2023-04-05T21:33:31.767Z,21.47
2023-04-05T21:35:58.486Z,26.77
2023-04-05T21:38:25.136Z,22.30
2023-04-05T21:40:51.943Z,21.43
2023-04-05T21:43:18.543Z,22.17
2023-04-05T21:45:46.333Z,22.67
2023-04-05T21:48:12.943Z,23.23
2023-04-05T21:50:39.591Z,21.77
2023-04-05T21:53:07.225Z,22.20
2023-04-05T21:55:33.931Z,22.70
2023-04-05T21:58:00.737Z,23.03
2023-04-05T22:00:27.824Z,22.17
2023-04-05T22:02:54.443Z,22.13
2023-04-05T22:05:33.806Z,21.63
2023-04-05T22:08:03.525Z,21.87
2023-04-05T22:10:30.216Z,22.80
2023-04-05T22:12:56.800Z,20.73
2023-04-05T22:15:23.389Z,21.77
2023-04-05T22:17:49.988Z,20.63
2023-04-05T22:20:16.770Z,22.07
2023-04-05T22:22:43.328Z,21.50
2023-04-05T22:25:10.052Z,21.43
2023-04-05T22:27:36.614Z,22.30
2023-04-05T22:30:04.665Z,21.83
2023-04-05T22:32:31.395Z,21.30
2023-04-05T22:34:58.049Z,20.87
2023-04-05T22:37:24.845Z,22.97
2023-04-05T22:39:51.419Z,21.87
2023-04-05T22:42:17.983Z,22.07
2023-04-05T22:44:44.558Z,21.57
2023-04-05T22:47:11.113Z,21.27
2023-04-05T22:49:37.933Z,21.87
2023-04-05T22:52:04.503Z,22.03
2023-04-05T22:54:31.202Z,20.13
2023-04-05T22:56:57.772Z,20.17
2023-04-05T22:59:24.579Z,22.13
2023-04-05T23:01:51.313Z,21.43
2023-04-05T23:04:17.961Z,21.83
2023-04-05T23:06:44.565Z,22.13
2023-04-05T23:09:11.343Z,21.73
2023-04-05T23:11:38.154Z,21.13
2023-04-05T23:14:04.767Z,20.90
2023-04-05T23:16:31.354Z,22.13
2023-04-05T23:18:57.996Z,21.03
2023-04-05T23:21:24.703Z,21.97
2023-04-05T23:23:51.488Z,21.27
2023-04-05T23:26:18.037Z,21.67
2023-04-05T23:28:44.615Z,21.53
2023-04-05T23:31:11.220Z,22.20
2023-04-05T23:33:37.840Z,21.30
2023-04-05T23:36:04.790Z,20.57
2023-04-05T23:38:31.476Z,20.57
2023-04-05T23:40:58.013Z,21.30
2023-04-05T23:43:24.591Z,22.70
2023-04-05T23:45:51.126Z,21.60
2023-04-05T23:48:17.675Z,22.47
2023-04-05T23:50:44.236Z,22.50
2023-04-05T23:53:11.092Z,22.67
2023-04-05T23:55:40.335Z,21.67
2023-04-05T23:58:07.945Z,21.93
